CheckWX is a tool to help pilots better visualize weather data.  It is not intended as a substitute for an official pre-flight weather briefing.

16:53:58 UTC

ZJHK TAF
Haikou Meilan International Airport
Haikou, China
TAF ZJHK 180907Z 1812/1912 18003MPS 9999 SCT020 TX35/1907Z TN26/1821Z

Jun-18@
12:00 UTC

Jun-18 @ 12:00 UTC

Jun-19@
12:00 UTC

Jun-19 @ 12:00 UTC

TAF ZJHK 180907Z 1812/1912 18003MPS 9999 SCT020 TX35/1907Z TN26/1821Z
Wind
  • 180° at 6 KTS
Cloud Levels
  • Scattered at 2,000' AGL